SWA1002 TJSJ-KFLL
Flight info
| Callsign | SWA1002 |
|---|---|
| Flight time | N/A |
| Altitude | 32000 |
| Route | ACONY3 SAPPO Y399 ZQA OLAHS3 |
| Aircraft | B38M/M-SDE1FGHILORVWXY/HB1 |
Departure
| Time | 2026-05-03 23:08 |
|---|---|
| Airport | Luis Munoz Marin International Airport (TJSJ) |
Arrival
| Time | N/A |
|---|---|
| Airport | Fort Lauderdale Hollywood International Airport (KFLL) |
| Time | Latitude | Longitude | Altitude | Speed | Heading |
|---|---|---|---|---|---|
| 2026-05-03 22:50 | 18.43704 | -66.00215 | -24 ft | 0 kts | 180° |
| 2026-05-03 22:57 | 18.43709 | -66.00215 | -26 ft | 2 kts | 179° |
| 2026-05-03 22:58 | 18.43726 | -66.00215 | -24 ft | 2 kts | 178° |
| 2026-05-03 22:58 | 18.43742 | -66.00216 | -26 ft | 2 kts | 171° |
| 2026-05-03 22:58 | 18.43757 | -66.00223 | -26 ft | 2 kts | 116° |
| 2026-05-03 22:58 | 18.43759 | -66.00232 | -26 ft | 0 kts | 91° |
| 2026-05-03 23:01 | 18.43759 | -66.00224 | -24 ft | 4 kts | 91° |
| 2026-05-03 23:01 | 18.43762 | -66.00166 | -27 ft | 11 kts | 77° |
| 2026-05-03 23:01 | 18.43790 | -66.00088 | -24 ft | 10 kts | 65° |
| 2026-05-03 23:01 | 18.43824 | -66.00052 | -28 ft | 8 kts | 12° |
| 2026-05-03 23:02 | 18.43898 | -66.00072 | -25 ft | 15 kts | 337° |
| 2026-05-03 23:02 | 18.44005 | -66.00120 | -28 ft | 17 kts | 337° |
| 2026-05-03 23:02 | 18.44123 | -66.00175 | -24 ft | 17 kts | 336° |
| 2026-05-03 23:02 | 18.44186 | -66.00223 | -27 ft | 10 kts | 286° |
| 2026-05-03 23:03 | 18.44167 | -66.00298 | -24 ft | 11 kts | 247° |
| 2026-05-03 23:03 | 18.44133 | -66.00378 | -26 ft | 13 kts | 250° |
| 2026-05-03 23:03 | 18.44134 | -66.00476 | -27 ft | 15 kts | 286° |
| 2026-05-03 23:03 | 18.44119 | -66.00588 | -27 ft | 16 kts | 246° |
| 2026-05-03 23:04 | 18.44074 | -66.00700 | -27 ft | 18 kts | 247° |
| 2026-05-03 23:04 | 18.44013 | -66.00848 | -29 ft | 25 kts | 245° |
| 2026-05-03 23:04 | 18.43947 | -66.01015 | -40 ft | 24 kts | 246° |
| 2026-05-03 23:04 | 18.43880 | -66.01178 | -37 ft | 22 kts | 247° |
| 2026-05-03 23:05 | 18.43827 | -66.01309 | -43 ft | 18 kts | 247° |
| 2026-05-03 23:05 | 18.43783 | -66.01419 | -42 ft | 16 kts | 248° |
| 2026-05-03 23:05 | 18.43754 | -66.01495 | -37 ft | 1 kts | 263° |
| 2026-05-03 23:06 | 18.43754 | -66.01496 | -37 ft | 1 kts | 264° |
| 2026-05-03 23:06 | 18.43756 | -66.01513 | -40 ft | 4 kts | 287° |
| 2026-05-03 23:06 | 18.43792 | -66.01553 | -52 ft | 12 kts | 322° |
| 2026-05-03 23:07 | 18.43835 | -66.01565 | -45 ft | 6 kts | 13° |
| 2026-05-03 23:07 | 18.43850 | -66.01549 | -53 ft | 0 kts | 62° |
| 2026-05-03 23:07 | 18.43880 | -66.01477 | -45 ft | 40 kts | 67° |
| 2026-05-03 23:07 | 18.44093 | -66.00951 | -44 ft | 113 kts | 67° |
| 2026-05-03 23:08 | 18.44483 | -65.99990 | 38 ft | 163 kts | 66° |
| 2026-05-03 23:08 | 18.45062 | -65.98908 | 551 ft | 185 kts | 50° |
| 2026-05-03 23:08 | 18.46139 | -65.98038 | 1124 ft | 207 kts | 31° |
| 2026-05-03 23:08 | 18.47644 | -65.97507 | 1527 ft | 244 kts | 6° |
| 2026-05-03 23:09 | 18.49348 | -65.97707 | 2424 ft | 257 kts | 343° |
| 2026-05-03 23:09 | 18.51062 | -65.98447 | 3129 ft | 275 kts | 338° |
| 2026-05-03 23:09 | 18.52843 | -65.99261 | 4048 ft | 281 kts | 339° |
| 2026-05-03 23:09 | 18.54638 | -66.00081 | 4795 ft | 289 kts | 339° |
| 2026-05-03 23:10 | 18.56467 | -66.00977 | 4930 ft | 291 kts | 329° |
| 2026-05-03 23:10 | 18.57892 | -66.02476 | 5441 ft | 292 kts | 306° |
| 2026-05-03 23:10 | 18.59138 | -66.04184 | 6358 ft | 296 kts | 309° |
| 2026-05-03 23:10 | 18.60440 | -66.05896 | 7200 ft | 300 kts | 309° |
| 2026-05-03 23:11 | 18.61747 | -66.07600 | 8189 ft | 298 kts | 309° |
| 2026-05-03 23:11 | 18.63058 | -66.09300 | 9093 ft | 301 kts | 310° |
| 2026-05-03 23:11 | 18.64381 | -66.11011 | 10026 ft | 300 kts | 309° |
| 2026-05-03 23:11 | 18.65719 | -66.12740 | 10634 ft | 313 kts | 309° |
| 2026-05-03 23:12 | 18.67142 | -66.14575 | 10960 ft | 333 kts | 309° |
| 2026-05-03 23:12 | 18.68642 | -66.16509 | 11353 ft | 348 kts | 309° |
| 2026-05-03 23:12 | 18.70191 | -66.18509 | 11960 ft | 353 kts | 309° |
| 2026-05-03 23:12 | 18.71750 | -66.20527 | 12736 ft | 355 kts | 309° |
| 2026-05-03 23:13 | 18.73316 | -66.22554 | 13420 ft | 358 kts | 308° |
| 2026-05-03 23:13 | 18.74894 | -66.24596 | 14108 ft | 360 kts | 309° |
| 2026-05-03 23:13 | 18.76480 | -66.26649 | 14688 ft | 362 kts | 308° |
| 2026-05-03 23:13 | 18.78071 | -66.28711 | 15362 ft | 362 kts | 307° |
| 2026-05-03 23:14 | 18.79670 | -66.30783 | 15911 ft | 366 kts | 308° |
| 2026-05-03 23:14 | 18.81284 | -66.32877 | 16435 ft | 370 kts | 307° |
| 2026-05-03 23:14 | 18.82906 | -66.34980 | 17080 ft | 369 kts | 307° |
| 2026-05-03 23:14 | 18.84532 | -66.37090 | 17624 ft | 372 kts | 307° |
| 2026-05-03 23:15 | 18.86172 | -66.39218 | 18108 ft | 375 kts | 307° |
| 2026-05-03 23:15 | 18.87820 | -66.41358 | 18651 ft | 376 kts | 307° |
| 2026-05-03 23:15 | 18.89478 | -66.43510 | 19034 ft | 381 kts | 307° |
| 2026-05-03 23:15 | 18.91152 | -66.45684 | 19441 ft | 384 kts | 307° |
| 2026-05-03 23:16 | 18.92855 | -66.47825 | 19839 ft | 388 kts | 313° |
| 2026-05-03 23:16 | 18.94831 | -66.49784 | 20242 ft | 392 kts | 315° |
| 2026-05-03 23:16 | 18.96819 | -66.51776 | 20611 ft | 395 kts | 315° |
| 2026-05-03 23:16 | 18.98807 | -66.53794 | 21067 ft | 397 kts | 314° |
| 2026-05-03 23:17 | 19.00800 | -66.55834 | 21416 ft | 401 kts | 314° |
| 2026-05-03 23:17 | 19.02808 | -66.57895 | 21823 ft | 403 kts | 315° |
| 2026-05-03 23:17 | 19.04832 | -66.59979 | 22110 ft | 409 kts | 315° |
| 2026-05-03 23:17 | 19.06874 | -66.62081 | 22515 ft | 411 kts | 315° |
| 2026-05-03 23:18 | 19.08762 | -66.64379 | 22835 ft | 414 kts | 308° |
| 2026-05-03 23:18 | 19.10566 | -66.66771 | 23185 ft | 418 kts | 309° |
| 2026-05-03 23:18 | 19.12407 | -66.69164 | 23531 ft | 421 kts | 309° |
| 2026-05-03 23:18 | 19.14274 | -66.71572 | 23818 ft | 425 kts | 309° |
| 2026-05-03 23:19 | 19.16154 | -66.73988 | 24130 ft | 427 kts | 309° |
| 2026-05-03 23:19 | 19.18049 | -66.76422 | 24451 ft | 428 kts | 309° |
| 2026-05-03 23:19 | 19.19920 | -66.78823 | 24777 ft | 430 kts | 309° |
| 2026-05-03 23:19 | 19.21827 | -66.81273 | 25077 ft | 432 kts | 309° |
| 2026-05-03 23:20 | 19.23740 | -66.83731 | 25421 ft | 433 kts | 309° |
| 2026-05-03 23:20 | 19.25663 | -66.86202 | 25722 ft | 436 kts | 309° |
| 2026-05-03 23:20 | 19.27594 | -66.88686 | 26009 ft | 438 kts | 309° |
| 2026-05-03 23:20 | 19.29536 | -66.91184 | 26335 ft | 440 kts | 309° |
| 2026-05-03 23:21 | 19.31488 | -66.93696 | 26614 ft | 443 kts | 309° |
| 2026-05-03 23:21 | 19.33447 | -66.96217 | 26919 ft | 444 kts | 309° |
| 2026-05-03 23:21 | 19.35415 | -66.98751 | 27242 ft | 446 kts | 309° |
| 2026-05-03 23:21 | 19.37387 | -67.01294 | 27525 ft | 448 kts | 309° |
| 2026-05-03 23:22 | 19.41360 | -67.06416 | 28119 ft | 452 kts | 309° |
| 2026-05-03 23:22 | 19.43359 | -67.08997 | 28387 ft | 454 kts | 308° |
| 2026-05-03 23:22 | 19.45370 | -67.11590 | 28655 ft | 456 kts | 308° |
| 2026-05-03 23:23 | 19.47388 | -67.14196 | 28938 ft | 458 kts | 308° |
| 2026-05-03 23:23 | 19.49419 | -67.16820 | 29191 ft | 461 kts | 308° |
| 2026-05-03 23:23 | 19.51455 | -67.19451 | 29482 ft | 462 kts | 309° |
| 2026-05-03 23:23 | 19.53495 | -67.22089 | 29755 ft | 463 kts | 308° |
| 2026-05-03 23:24 | 19.55543 | -67.24739 | 29980 ft | 466 kts | 308° |
| 2026-05-03 23:24 | 19.57573 | -67.27366 | 30241 ft | 467 kts | 308° |
| 2026-05-03 23:24 | 19.59640 | -67.30042 | 30458 ft | 469 kts | 308° |
| 2026-05-03 23:24 | 19.61707 | -67.32719 | 30700 ft | 469 kts | 308° |
| 2026-05-03 23:25 | 19.63776 | -67.35400 | 30947 ft | 470 kts | 308° |
| 2026-05-03 23:25 | 19.65848 | -67.38087 | 31190 ft | 471 kts | 308° |
| 2026-05-03 23:25 | 19.67924 | -67.40779 | 31436 ft | 471 kts | 308° |
| 2026-05-03 23:25 | 19.70001 | -67.43474 | 31692 ft | 471 kts | 308° |
| 2026-05-03 23:26 | 19.72074 | -67.46167 | 31996 ft | 471 kts | 308° |